Thunder radar more information blitzortung!


Löydät sääaseman tiedot myös:

European Weather Network

Finland Weather Exchange

Weather Underground

AWEKAS



Weather Underground säähistoriasivu

Päivittäin yhteenveto Tammikuu 24, 2017 Yksiköt:  Metriset    Englantilaiset   Molemmat
« Edellinen Päivä
Seuraava Päivä »
Päivittäin Viikoittain Kuukausittain Vuosittain Mukautettu
  Korkea: Matala: Keskiarvo:
Lämpötila: -17.8 °C -22.8 °C -20.3 °C
Kastepiste: -17.8 °C -23.4 °C -21.1 °C
Kosteus: Humidity % 87 % 90 %
Tuulen nopeus: 0 km/h 0 km/h 0 km/h
Tuulenpuuska: 0 km/h - -
Tuuli:- - North
Ilmanpaine: 0 hPa 34130.9 hPa -
Sade: 0 mm    
Historical Graphs
 
 
Taulukkotiedot Tammikuu 24, 2017
Aika Lämpötila Kastepiste Ilmanpaine Tuuli Tuulen nopeus Tuulenpuuska Kosteus Sademäärä (tunneittain)
-17.8 °C -17.8 °C 0 hPa Calm     Humidity % 0 mm
00:00 -18.7 °C -19.3 °C 34130.9 hPa Calm     92 % 0 mm
00:15 -18.7 °C -19.4 °C 34144.4 hPa Calm     91 % 0 mm
00:30 -18.8 °C -19.5 °C 34154.6 hPa Calm     91 % 0 mm
00:45 -18.8 °C -19.4 °C 34164.7 hPa Calm     92 % 0 mm
01:00 -18.8 °C -19.4 °C 34164.7 hPa Calm     92 % 0 mm
01:15 -18.8 °C -19.4 °C 34178.3 hPa Calm     92 % 0 mm
01:30 -18.8 °C -19.4 °C 34188.4 hPa Calm     92 % 0 mm
01:45 -18.7 °C -19.4 °C 34198.6 hPa Calm     92 % 0 mm
02:00 -18.8 °C -19.4 °C 34198.6 hPa Calm     92 % 0 mm
02:15 -18.8 °C -19.5 °C 34198.6 hPa Calm     91 % 0 mm
02:30 -18.8 °C -19.5 °C 34198.6 hPa Calm     91 % 0 mm
02:45 -18.8 °C -19.5 °C 34212.1 hPa Calm     91 % 0 mm
03:00 -18.8 °C -19.6 °C 34222.3 hPa Calm     90 % 0 mm
03:15 -18.9 °C -19.7 °C 34235.8 hPa Calm     90 % 0 mm
03:30 -18.9 °C -19.7 °C 34246 hPa Calm     90 % 0 mm
03:45 -19 °C -19.9 °C 34256.2 hPa Calm     89 % 0 mm
04:00 -19.1 °C -19.9 °C 34269.7 hPa Calm     89 % 0 mm
04:15 -19.1 °C -19.8 °C 34279.9 hPa Calm     90 % 0 mm
04:30 -19.1 °C -19.8 °C 34293.4 hPa Calm     90 % 0 mm
04:45 -19.1 °C -19.7 °C 34303.6 hPa Calm     91 % 0 mm
05:00 -19.1 °C -19.9 °C 34303.6 hPa Calm     90 % 0 mm
05:15 -19.1 °C -19.9 °C 34313.7 hPa Calm     90 % 0 mm
05:30 -19.1 °C -19.8 °C 34313.7 hPa Calm     91 % 0 mm
05:45 -19.1 °C -19.9 °C 34313.7 hPa Calm     90 % 0 mm
06:00 -19.1 °C -19.9 °C 34327.3 hPa Calm     90 % 0 mm
06:15 -19.1 °C -20 °C 34337.4 hPa Calm     89 % 0 mm
06:30 -19.1 °C -20 °C 34337.4 hPa Calm     89 % 0 mm
06:45 -19.1 °C -20 °C 34347.6 hPa Calm     89 % 0 mm
07:00 -19.1 °C -20.1 °C 34361.1 hPa Calm     88 % 0 mm
07:15 -19.1 °C -20.2 °C 34371.3 hPa Calm     87 % 0 mm
07:30 -19.1 °C -20.1 °C 34384.8 hPa Calm     87 % 0 mm
07:45 -19.1 °C -20 °C 34395 hPa Calm     88 % 0 mm
08:00 -19.1 °C -20.1 °C 34405.1 hPa Calm     88 % 0 mm
08:15 -19.2 °C -20.2 °C 34418.7 hPa Calm     88 % 0 mm
08:30 -19.4 °C -20.2 °C 34428.8 hPa Calm     89 % 0 mm
08:45 -19.6 °C -20.4 °C 34442.4 hPa Calm     89 % 0 mm
09:00 -19.8 °C -20.6 °C 34452.6 hPa Calm     89 % 0 mm
09:15 -19.9 °C -20.7 °C 34452.6 hPa Calm     90 % 0 mm
09:30 -20.1 °C -20.8 °C 34462.7 hPa Calm     90 % 0 mm
09:45 -20.2 °C -20.9 °C 34462.7 hPa Calm     90 % 0 mm
10:00 -20.3 °C -21 °C 34486.4 hPa Calm     91 % 0 mm
10:15 -20.4 °C -21 °C 34496.6 hPa Calm     92 % 0 mm
10:30 -20.4 °C -21 °C 34496.6 hPa Calm     92 % 0 mm
10:45 -20.4 °C -21.1 °C 34510.1 hPa Calm     92 % 0 mm
11:00 -20.4 °C -21.1 °C 34510.1 hPa Calm     92 % 0 mm
11:15 -20.4 °C -21 °C 34520.3 hPa Calm     92 % 0 mm
11:30 -20.4 °C -21.1 °C 34520.3 hPa Calm     91 % 0 mm
11:45 -20.3 °C -21.1 °C 34533.8 hPa Calm     91 % 0 mm
12:00 -20.3 °C -21.1 °C 34533.8 hPa Calm     90 % 0 mm
12:15 -20.3 °C -21.2 °C 34544 hPa Calm     89 % 0 mm
12:30 -20.3 °C -21.2 °C 34544 hPa Calm     89 % 0 mm
12:45 -20.3 °C -21.1 °C 34554.1 hPa Calm     89 % 0 mm
13:00 -20.2 °C -21.2 °C 34554.1 hPa Calm     88 % 0 mm
13:15 -20.2 °C -21.2 °C 34567.7 hPa Calm     88 % 0 mm
13:30 -20.2 °C -21.2 °C 34577.8 hPa Calm     88 % 0 mm
13:45 -20.2 °C -21.2 °C 34577.8 hPa Calm     88 % 0 mm
14:00 -20.2 °C -21.2 °C 34577.8 hPa Calm     88 % 0 mm
14:15 -20.3 °C -21.2 °C 34591.4 hPa Calm     88 % 0 mm
14:30 -20.3 °C -21.2 °C 34591.4 hPa Calm     88 % 0 mm
14:45 -20.3 °C -21.2 °C 34591.4 hPa Calm     88 % 0 mm
15:00 -20.3 °C -21.2 °C 34591.4 hPa Calm     88 % 0 mm
15:15 -20.3 °C -21.3 °C 34601.5 hPa Calm     88 % 0 mm
15:30 -20.4 °C -21.4 °C 34601.5 hPa Calm     88 % 0 mm
15:45 -20.6 °C -21.5 °C 34601.5 hPa Calm     88 % 0 mm
16:00 -20.7 °C -21.6 °C 34611.7 hPa Calm     89 % 0 mm
16:15 -20.9 °C -21.8 °C 34611.7 hPa Calm     89 % 0 mm
16:30 -21.2 °C -21.9 °C 34611.7 hPa Calm     90 % 0 mm
16:45 -21.4 °C -22.2 °C 34625.2 hPa Calm     90 % 0 mm
17:00 -21.6 °C -22.3 °C 34625.2 hPa Calm     91 % 0 mm
17:15 -21.8 °C -22.4 °C 34635.4 hPa Calm     91 % 0 mm
17:30 -21.9 °C -22.6 °C 34635.4 hPa Calm     92 % 0 mm
17:45 -22.1 °C -22.7 °C 34635.4 hPa Calm     92 % 0 mm
18:00 -22.2 °C -22.8 °C 34635.4 hPa Calm     92 % 0 mm
18:15 -22.3 °C -22.9 °C 34635.4 hPa Calm     92 % 0 mm
18:30 -22.4 °C -23 °C 34635.4 hPa Calm     92 % 0 mm
18:45 -22.6 °C -23.1 °C 34645.6 hPa Calm     92 % 0 mm
19:00 -22.7 °C -23.3 °C 34645.6 hPa Calm     92 % 0 mm
19:15 -22.8 °C -23.4 °C 34645.6 hPa Calm     92 % 0 mm
19:30 -22.8 °C -23.3 °C 34645.6 hPa Calm     93 % 0 mm
19:45 -22.7 °C -23.2 °C 34659.1 hPa Calm     93 % 0 mm
20:00 -22.6 °C -23.1 °C 34659.1 hPa Calm     93 % 0 mm
20:15 -22.4 °C -23 °C 34659.1 hPa Calm     93 % 0 mm
20:30 -22.3 °C -22.9 °C 34659.1 hPa Calm     93 % 0 mm
20:45 -22.2 °C -22.7 °C 34669.3 hPa Calm     93 % 0 mm
21:00 -22 °C -22.4 °C 34669.3 hPa Calm     94 % 0 mm
21:15 -21.8 °C -22.3 °C 34659.1 hPa Calm     94 % 0 mm
21:30 -21.8 °C -22.3 °C 34669.3 hPa Calm     93 % 0 mm
21:45 -21.8 °C -22.3 °C 34669.3 hPa Calm     93 % 0 mm
22:00 -21.8 °C -22.3 °C 34682.8 hPa Calm     93 % 0 mm
22:15 -21.8 °C -22.3 °C 34682.8 hPa Calm     93 % 0 mm
22:30 -21.8 °C -22.3 °C 34669.3 hPa Calm     93 % 0 mm
22:45 -21.7 °C -22.3 °C 34669.3 hPa Calm     93 % 0 mm
23:00 -21.7 °C -22.3 °C 34682.8 hPa Calm     93 % 0 mm
23:15 -21.7 °C -22.3 °C 34682.8 hPa Calm     93 % 0 mm
23:30 -21.7 °C -22.2 °C 34693 hPa Calm     93 % 0 mm
23:45 -21.6 °C -22.2 °C 34682.8 hPa Calm     93 % 0 mm
Esan sääasema
Terveisin Weather Underground - 2.75 mb

Alkuperäinen skripti  Jim McMurry - jmcmurry@mwt.net Sovitettu myös templatelle  Wim van der Kuil - Leuven-Template.eu

Laitteet joita käytämme:

Sääasema
Davis VP2

Sääasemaohjelma
Cumulus

Sääaseman tietokone
Asus EeePC

Palveluntarjoaja
Suncomet

Davis VP2

Cumulus

Asus EeePC

Suncomet